Other Surface Observations
Issued by NWS Great Falls, MT

Home | Current Version | Previous Version | Text Only | Print | Product List | Glossary On
Versions: 1 2 3 4 5 6 7 8 9 10 11 12 13 14 15 16 17 18 19 20 21 22 23 24 25 26 27 28 29 30 31 32 33 34 35 36 37 38 39 40 41 42 43 44 45 46 47 48 49 50
246
SXUS55 KTFX 232129
OSOTFX
AREA AWOS OBSERVATIONS
NATIONAL WEATHER SERVICE GREAT FALLS MT
0329 PM MDT TUE AUG 23 2016

METAR KPO1 232130Z AUTO 27024G31KT 8SM 23/06 A2987 RMK POPLAR
METAR K1S3 232130Z AUTO 26009G15KT 10SM 25/M01 A2995 RMK FORSYTH
METAR KS71 232130Z AUTO 27021G30KT 10SM 19/09 A2995 RMK CHINOOK
METAR K38S 232130Z AUTO 31016G24KT 10SM 21/M01 A3015 RMK DEER LODGE
METAR K6S5 232130Z AUTO 16005KT 8SM 22/02 A3014 RMK HAMILTON
METAR KS59 232130Z AUTO 09004KT 10SM 24/03 A3010 RMK LIBBY
METAR K88M 232130Z AUTO 00000KT 10SM 19/04 A3015 RMK EUREKA



USA.gov is the U.S. government's official web portal to all federal, state and local government web resources and services.